Portada
METAR-TAF:

METAR-TAF

Aeropuertos :

Base Aérea de Torrejón / Aeropuerto de Madrid-Torrejón

Madrid-Torrejón, España

latitud: 40-29N, longitud: 003-27W, altitud: 607 m

Observación

El informe se hizo hace 1 hora y 9 minutos, a las 08:00 UTC
Viento 4 kt del norte-noreste
Temperatura 0°C
Humedad 86%
Presión 1033 hPa
Visibilidad 10 km o más
sin nubes por debajo de 1500 m y sin presencia de cumulonimbus.

METAR: LETO 220800Z 03004KT CAVOK 00/M02 Q1033 NOSIG

Hora: 10:09 (09:09 UTC)

Pronóstico

El informe se hizo hace 4 horas y 9 minutos, a las 05:00 UTC
Pronóstico válido del 22 a las 06 UTC al 23 a las 06 UTC
Viento 4 kt del noreste
Visibilidad 10 km o más
sin nubes por debajo de 1500 m y sin presencia de cumulonimbus.

TAF: LETO 220500Z 2206/2306 04004KT CAVOK TX19/2215Z TNM01/2206Z

Observaciones y pronósticos meteorológicos de más de 4000 aeropuertos (mensajes METAR y TAF).

Los puntos amarillos y rojos representan las estaciones disponibles.

Ponga el ratón en el punto deseado para ver el nombre de la estación.

Haga clic para ver las observaciones y los pronósticos meteorológicos.

Para cambiar el mapa : haga clic en los botones verdes con una cruz de color negro para hacer un zoom, en el botón verde con un guión para alejar o en las flechas verdes para mapas adyacentes.


METAR-TAF: